createdAt,value
2018-06-02T00:00:30.551Z,0.00
2018-06-02T00:01:30.544Z,0.00
2018-06-02T00:02:30.538Z,0.00
2018-06-02T00:03:30.533Z,0.00
2018-06-02T00:04:30.732Z,0.00
2018-06-02T00:05:30.524Z,0.00
2018-06-02T00:06:30.516Z,0.00
2018-06-02T00:08:30.507Z,0.00
2018-06-02T00:09:30.501Z,0.00
2018-06-02T00:10:30.494Z,0.00
2018-06-02T00:11:30.488Z,0.00
2018-06-02T00:12:30.484Z,0.00
2018-06-02T00:13:30.477Z,0.00
2018-06-02T00:14:30.472Z,0.00
2018-06-02T00:15:30.465Z,0.00
2018-06-02T00:16:30.461Z,0.00
2018-06-02T00:17:30.454Z,0.00
2018-06-02T00:18:30.450Z,0.00
2018-06-02T00:19:30.445Z,0.00
2018-06-02T00:20:30.438Z,0.00
2018-06-02T00:21:30.435Z,0.00
2018-06-02T00:22:30.428Z,0.00
2018-06-02T00:23:30.423Z,0.00
2018-06-02T00:24:30.416Z,0.00
2018-06-02T00:25:30.420Z,0.00
2018-06-02T00:26:30.407Z,0.00
2018-06-02T00:27:30.399Z,0.00
2018-06-02T00:28:30.798Z,0.00
2018-06-02T00:29:30.391Z,0.00
2018-06-02T00:30:30.383Z,0.00
2018-06-02T00:31:30.379Z,0.00
2018-06-02T00:32:30.375Z,0.00
2018-06-02T00:33:30.368Z,0.00
2018-06-02T00:34:30.361Z,0.00
2018-06-02T00:35:30.359Z,0.00
2018-06-02T00:36:30.352Z,0.00
2018-06-02T00:37:30.346Z,0.00
2018-06-02T00:38:30.338Z,0.00
2018-06-02T00:39:30.334Z,0.00
2018-06-02T00:40:30.329Z,0.00
2018-06-02T00:41:30.322Z,0.00
2018-06-02T00:42:30.317Z,0.00
2018-06-02T00:43:30.311Z,0.00
2018-06-02T00:44:30.306Z,0.00
2018-06-02T00:45:30.301Z,0.00
2018-06-02T00:46:30.298Z,0.00
2018-06-02T00:47:30.289Z,0.00
2018-06-02T00:48:30.285Z,0.00
2018-06-02T00:49:30.283Z,0.00
2018-06-02T00:50:30.277Z,0.00
2018-06-02T00:51:30.267Z,0.00
2018-06-02T00:52:30.262Z,0.00
2018-06-02T00:53:30.258Z,0.00
2018-06-02T00:54:30.252Z,0.00
2018-06-02T00:55:30.247Z,0.00
2018-06-02T00:56:30.246Z,0.00
2018-06-02T00:57:30.236Z,0.00
2018-06-02T00:58:30.236Z,0.00
2018-06-02T00:59:30.226Z,0.00
2018-06-02T01:00:30.222Z,0.00
2018-06-02T01:01:30.217Z,0.00
2018-06-02T01:02:30.209Z,0.00
2018-06-02T01:03:30.205Z,0.00
2018-06-02T01:04:30.203Z,0.00
2018-06-02T01:05:30.235Z,0.00
2018-06-02T01:06:30.194Z,0.00
2018-06-02T01:07:30.189Z,0.00
2018-06-02T01:08:30.181Z,0.00
2018-06-02T01:09:30.176Z,0.00
2018-06-02T01:10:30.170Z,0.00
2018-06-02T01:11:30.167Z,0.00
2018-06-02T01:12:30.161Z,0.00
2018-06-02T01:13:30.157Z,0.00
2018-06-02T01:14:30.150Z,0.00
2018-06-02T01:15:30.147Z,0.00
2018-06-02T01:16:30.145Z,0.00
2018-06-02T01:17:30.137Z,0.00
2018-06-02T01:18:30.130Z,0.00
2018-06-02T01:19:30.125Z,0.00
2018-06-02T01:20:30.122Z,0.00
2018-06-02T01:21:30.116Z,0.00
2018-06-02T01:22:30.109Z,0.00
2018-06-02T01:23:30.105Z,0.00
2018-06-02T01:24:30.100Z,0.00
2018-06-02T01:25:30.096Z,0.00
2018-06-02T01:26:30.089Z,0.00
2018-06-02T01:27:30.087Z,0.00
2018-06-02T01:28:30.080Z,0.00
2018-06-02T01:29:30.079Z,0.00
2018-06-02T01:30:30.072Z,0.00
2018-06-02T01:31:30.065Z,0.00
2018-06-02T01:32:30.059Z,0.00
2018-06-02T01:33:30.056Z,0.00
2018-06-02T01:34:30.052Z,0.00
2018-06-02T01:35:30.045Z,0.00
2018-06-02T01:36:30.041Z,0.00
2018-06-02T01:37:30.038Z,0.00
2018-06-02T01:38:30.029Z,0.00
2018-06-02T01:39:30.025Z,0.00
2018-06-02T01:40:30.424Z,0.00
2018-06-02T01:41:30.016Z,0.00
2018-06-02T01:42:30.010Z,0.00
2018-06-02T01:43:30.005Z,0.00
2018-06-02T01:44:29.999Z,0.00
2018-06-02T01:45:29.995Z,0.00
2018-06-02T01:46:29.992Z,0.00
2018-06-02T01:47:30.189Z,0.00
2018-06-02T01:48:29.986Z,0.00
2018-06-02T01:49:29.976Z,0.00
2018-06-02T01:50:29.971Z,0.00
2018-06-02T01:51:29.966Z,0.00
2018-06-02T01:52:29.961Z,0.00
2018-06-02T01:53:29.957Z,0.00
2018-06-02T01:54:29.951Z,0.00
2018-06-02T01:55:29.947Z,0.00
2018-06-02T01:56:29.941Z,0.00
2018-06-02T01:57:29.943Z,0.00
2018-06-02T01:58:29.932Z,0.00
2018-06-02T01:59:29.926Z,0.00
2018-06-02T02:00:29.921Z,0.00
2018-06-02T02:01:29.916Z,0.00
2018-06-02T02:02:29.911Z,0.00
2018-06-02T02:03:29.906Z,0.00
2018-06-02T02:04:29.901Z,0.00
2018-06-02T02:05:29.895Z,0.00
2018-06-02T02:06:29.888Z,0.00
2018-06-02T02:07:29.883Z,0.00
2018-06-02T02:08:29.884Z,0.00
2018-06-02T02:09:29.870Z,0.00
2018-06-02T02:10:29.863Z,0.00
2018-06-02T02:11:29.863Z,0.00
2018-06-02T02:12:29.853Z,0.00
2018-06-02T02:13:29.846Z,0.00
2018-06-02T02:14:29.839Z,0.00
2018-06-02T02:15:29.832Z,0.00
2018-06-02T02:16:29.826Z,0.00
2018-06-02T02:17:29.821Z,0.00
2018-06-02T02:18:29.812Z,0.00
2018-06-02T02:19:29.806Z,0.00
2018-06-02T02:20:29.803Z,0.00
2018-06-02T02:21:29.794Z,0.00
2018-06-02T02:22:29.791Z,0.00
2018-06-02T02:23:29.781Z,0.00
2018-06-02T02:24:29.774Z,0.00
2018-06-02T02:25:29.770Z,0.00
2018-06-02T02:26:29.761Z,0.00
2018-06-02T02:27:29.756Z,0.00
2018-06-02T02:28:29.749Z,0.00
2018-06-02T02:29:29.945Z,0.00
2018-06-02T02:30:29.741Z,0.00
2018-06-02T02:31:29.735Z,0.00
2018-06-02T02:32:29.729Z,0.00
2018-06-02T02:33:29.718Z,0.00
2018-06-02T02:34:29.717Z,0.00
2018-06-02T02:35:29.707Z,0.00
2018-06-02T02:36:29.700Z,0.00
2018-06-02T02:37:29.693Z,0.00
2018-06-02T02:38:29.686Z,0.00
2018-06-02T02:39:29.680Z,0.00
2018-06-02T02:40:29.680Z,0.00
2018-06-02T02:41:29.668Z,0.00
2018-06-02T02:42:29.665Z,0.00
2018-06-02T02:43:29.656Z,0.00
2018-06-02T02:44:29.652Z,0.00
2018-06-02T02:45:29.644Z,0.00
2018-06-02T02:46:29.638Z,0.00
2018-06-02T02:47:29.633Z,0.00
2018-06-02T02:48:29.626Z,0.00
2018-06-02T02:49:29.620Z,0.00
2018-06-02T02:50:29.613Z,0.00
2018-06-02T02:51:29.615Z,0.00
2018-06-02T02:52:29.608Z,0.00
2018-06-02T02:53:29.597Z,0.00
2018-06-02T02:54:29.589Z,0.00
2018-06-02T02:55:29.585Z,0.00
2018-06-02T02:56:29.579Z,0.00
2018-06-02T02:57:29.573Z,0.00
2018-06-02T02:58:29.564Z,0.00
2018-06-02T02:59:29.561Z,0.00
2018-06-02T03:00:29.554Z,0.00
2018-06-02T03:01:29.752Z,0.00
2018-06-02T03:02:29.544Z,0.00
2018-06-02T03:03:29.535Z,0.00
2018-06-02T03:04:29.531Z,0.00
2018-06-02T03:05:29.526Z,0.00
2018-06-02T03:06:29.517Z,0.00
2018-06-02T03:07:29.513Z,0.00
2018-06-02T03:08:29.506Z,0.00
2018-06-02T03:09:29.499Z,0.00
2018-06-02T03:10:29.493Z,0.00
2018-06-02T03:11:29.487Z,0.00
2018-06-02T03:12:29.482Z,0.00
2018-06-02T03:13:29.476Z,0.00
2018-06-02T03:14:29.471Z,0.00
2018-06-02T03:15:29.464Z,0.00
2018-06-02T03:16:29.459Z,0.00
2018-06-02T03:17:29.456Z,0.00
2018-06-02T03:18:29.446Z,0.00
2018-06-02T03:19:29.439Z,0.00
2018-06-02T03:20:29.435Z,0.00
2018-06-02T03:21:29.428Z,0.00
2018-06-02T03:22:29.421Z,0.00
2018-06-02T03:23:29.421Z,0.00
2018-06-02T03:24:29.409Z,0.00
2018-06-02T03:25:29.403Z,0.00
2018-06-02T03:26:29.397Z,0.00
2018-06-02T03:27:29.396Z,0.00
2018-06-02T03:28:29.387Z,0.00
2018-06-02T03:29:29.381Z,5.63
2018-06-02T03:30:29.373Z,5.63
2018-06-02T03:31:29.370Z,5.63
2018-06-02T03:32:29.362Z,5.63
2018-06-02T03:33:29.359Z,5.63
2018-06-02T03:34:29.352Z,5.63
2018-06-02T03:35:29.344Z,5.63
2018-06-02T03:36:29.344Z,11.25
2018-06-02T03:37:29.332Z,11.25
2018-06-02T03:38:29.328Z,11.25
2018-06-02T03:39:29.319Z,11.25
2018-06-02T03:40:29.313Z,16.88
2018-06-02T03:41:29.312Z,16.88
2018-06-02T03:42:29.303Z,16.88
2018-06-02T03:43:29.295Z,16.88
2018-06-02T03:44:29.288Z,16.88
2018-06-02T03:45:29.283Z,16.88
2018-06-02T03:46:29.276Z,16.88
2018-06-02T03:47:29.269Z,16.88
2018-06-02T03:48:29.264Z,22.50
2018-06-02T03:49:29.258Z,22.50
2018-06-02T03:50:29.253Z,22.50
2018-06-02T03:51:29.244Z,22.50
2018-06-02T03:52:29.239Z,22.50
2018-06-02T03:53:29.234Z,22.50
2018-06-02T03:54:29.226Z,22.50
2018-06-02T03:55:29.233Z,28.13
2018-06-02T03:56:29.216Z,28.13
2018-06-02T03:57:29.208Z,33.75
2018-06-02T03:58:29.204Z,33.75
2018-06-02T03:59:29.197Z,33.75
2018-06-02T04:00:29.193Z,33.75
2018-06-02T04:01:29.191Z,33.75
2018-06-02T04:02:29.179Z,33.75
2018-06-02T04:03:29.173Z,33.75
2018-06-02T04:04:29.169Z,33.75
2018-06-02T04:05:29.160Z,33.75
2018-06-02T04:06:29.160Z,33.75
2018-06-02T04:07:29.149Z,33.75
2018-06-02T04:08:29.147Z,39.38
2018-06-02T04:09:29.136Z,39.38
2018-06-02T04:10:29.132Z,39.38
2018-06-02T04:11:29.127Z,39.38
2018-06-02T04:12:29.123Z,39.38
2018-06-02T04:13:29.113Z,45.00
2018-06-02T04:14:29.108Z,50.63
2018-06-02T04:15:29.106Z,56.25
2018-06-02T04:16:29.297Z,61.88
2018-06-02T04:17:29.088Z,67.50
2018-06-02T04:18:29.082Z,67.50
2018-06-02T04:20:29.071Z,78.75
2018-06-02T04:21:29.064Z,84.38
2018-06-02T04:22:29.058Z,84.38
2018-06-02T04:23:29.050Z,90.00
2018-06-02T04:24:29.048Z,95.63
2018-06-02T04:25:29.043Z,90.00
2018-06-02T04:26:29.240Z,84.38
2018-06-02T04:27:29.027Z,78.75
2018-06-02T04:28:29.027Z,78.75
2018-06-02T04:29:29.020Z,78.75
2018-06-02T04:30:29.012Z,78.75
2018-06-02T04:31:29.009Z,84.38
2018-06-02T04:32:28.999Z,84.38
2018-06-02T04:33:28.996Z,90.00
2018-06-02T04:34:28.985Z,95.63
2018-06-02T04:35:28.980Z,95.63
2018-06-02T04:36:28.974Z,95.63
2018-06-02T04:37:28.971Z,95.63
2018-06-02T04:38:28.964Z,95.63
2018-06-02T04:39:28.957Z,95.63
2018-06-02T04:40:28.952Z,95.63
2018-06-02T04:41:28.956Z,95.63
2018-06-02T04:42:28.940Z,95.63
2018-06-02T04:43:28.936Z,95.63
2018-06-02T04:44:28.934Z,95.63
2018-06-02T04:45:28.923Z,95.63
2018-06-02T04:46:28.917Z,95.63
2018-06-02T04:47:28.913Z,95.63
2018-06-02T04:48:28.907Z,101.25
2018-06-02T04:49:28.908Z,101.25
2018-06-02T04:50:29.102Z,101.25
2018-06-02T04:51:28.991Z,101.25
2018-06-02T04:52:28.891Z,106.88
2018-06-02T04:53:28.880Z,118.13
2018-06-02T04:54:28.872Z,118.13
2018-06-02T04:55:28.867Z,118.13
2018-06-02T04:56:29.063Z,118.13
2018-06-02T04:57:28.864Z,118.13
2018-06-02T04:58:28.851Z,112.50
2018-06-02T04:59:28.851Z,106.88
2018-06-02T05:00:28.838Z,106.88
2018-06-02T05:01:28.837Z,106.88
2018-06-02T05:02:28.826Z,118.13
2018-06-02T05:03:28.822Z,129.38
2018-06-02T05:04:28.835Z,140.63
2018-06-02T05:05:28.813Z,151.88
2018-06-02T05:06:29.006Z,157.50
2018-06-02T05:07:28.804Z,163.13
2018-06-02T05:08:28.794Z,163.13
2018-06-02T05:09:28.788Z,157.50
2018-06-02T05:10:28.784Z,151.88
2018-06-02T05:11:28.986Z,123.75
2018-06-02T05:12:28.773Z,101.25
2018-06-02T05:13:28.767Z,101.25
2018-06-02T05:14:28.767Z,90.00
2018-06-02T05:15:28.958Z,95.63
2018-06-02T05:16:28.749Z,84.38
2018-06-02T05:17:28.751Z,84.38
2018-06-02T05:18:28.739Z,101.25
2018-06-02T05:19:28.733Z,101.25
2018-06-02T05:20:28.733Z,101.25
2018-06-02T05:21:28.727Z,101.25
2018-06-02T05:22:28.721Z,112.50
2018-06-02T05:23:28.711Z,112.50
2018-06-02T05:24:28.711Z,123.75
2018-06-02T05:25:28.704Z,129.38
2018-06-02T05:26:28.695Z,129.38
2018-06-02T05:27:28.690Z,135.00
2018-06-02T05:28:28.684Z,146.25
2018-06-02T05:29:28.681Z,146.25
2018-06-02T05:30:28.674Z,146.25
2018-06-02T05:31:28.667Z,151.88
2018-06-02T05:32:28.662Z,151.88
2018-06-02T05:33:28.660Z,151.88
2018-06-02T05:34:28.655Z,151.88
2018-06-02T05:35:28.646Z,151.88
2018-06-02T05:36:28.640Z,163.13
2018-06-02T05:37:28.639Z,163.13
2018-06-02T05:38:28.628Z,140.63
2018-06-02T05:39:28.623Z,146.25
2018-06-02T05:40:28.626Z,140.63
2018-06-02T05:41:28.612Z,146.25
2018-06-02T05:42:28.812Z,140.63
2018-06-02T05:43:28.602Z,123.75
2018-06-02T05:44:28.597Z,123.75
2018-06-02T05:45:28.592Z,123.75
2018-06-02T05:46:28.584Z,106.88
2018-06-02T05:47:28.578Z,112.50
2018-06-02T05:48:28.578Z,112.50
2018-06-02T05:49:28.568Z,112.50
2018-06-02T05:50:28.563Z,106.88
2018-06-02T05:51:28.560Z,112.50
2018-06-02T05:52:28.553Z,106.88
2018-06-02T05:53:28.546Z,118.13
2018-06-02T05:54:28.546Z,123.75
2018-06-02T05:55:28.536Z,140.63
2018-06-02T05:56:28.732Z,135.00
2018-06-02T05:57:28.524Z,135.00
2018-06-02T05:58:28.519Z,135.00
2018-06-02T05:59:28.517Z,146.25
2018-06-02T06:00:28.515Z,146.25
2018-06-02T06:01:28.507Z,146.25
2018-06-02T06:02:28.497Z,135.00
2018-06-02T06:03:28.493Z,129.38
2018-06-02T06:04:28.487Z,146.25
2018-06-02T06:05:28.482Z,140.63
2018-06-02T06:06:28.480Z,140.63
2018-06-02T06:07:28.473Z,157.50
2018-06-02T06:08:28.465Z,146.25
2018-06-02T06:09:28.460Z,146.25
2018-06-02T06:10:28.453Z,135.00
2018-06-02T06:11:28.453Z,106.88
2018-06-02T06:12:28.444Z,101.25
2018-06-02T06:13:28.437Z,112.50
2018-06-02T06:14:28.432Z,118.13
2018-06-02T06:15:28.429Z,118.13
2018-06-02T06:16:28.420Z,140.63
2018-06-02T06:17:28.415Z,163.13
2018-06-02T06:18:28.410Z,146.25
2018-06-02T06:19:28.429Z,112.50
2018-06-02T06:20:28.399Z,95.63
2018-06-02T06:21:28.394Z,95.63
2018-06-02T06:22:28.387Z,95.63
2018-06-02T06:23:28.387Z,101.25
2018-06-02T06:24:28.377Z,95.63
2018-06-02T06:25:28.374Z,90.00
2018-06-02T06:26:28.365Z,95.63
2018-06-02T06:27:28.361Z,112.50
2018-06-02T06:28:28.358Z,118.13
2018-06-02T06:29:28.348Z,163.13
2018-06-02T06:30:28.348Z,157.50
2018-06-02T06:31:28.338Z,135.00
2018-06-02T06:32:28.337Z,140.63
2018-06-02T06:33:28.328Z,146.25
2018-06-02T06:34:28.320Z,129.38
2018-06-02T06:35:28.315Z,129.38
2018-06-02T06:36:28.312Z,129.38
2018-06-02T06:37:28.305Z,123.75
2018-06-02T06:38:28.301Z,118.13
2018-06-02T06:39:28.294Z,123.75
2018-06-02T06:40:28.288Z,118.13
2018-06-02T06:41:28.283Z,112.50
2018-06-02T06:42:28.278Z,118.13
2018-06-02T06:43:28.271Z,123.75
2018-06-02T06:44:28.340Z,118.13
2018-06-02T06:45:28.261Z,135.00
2018-06-02T06:46:28.266Z,129.38
2018-06-02T06:47:28.258Z,123.75
2018-06-02T06:48:28.246Z,123.75
2018-06-02T06:49:28.239Z,123.75
2018-06-02T06:50:28.236Z,135.00
2018-06-02T06:51:28.230Z,174.38
2018-06-02T06:52:28.221Z,168.75
2018-06-02T06:53:28.217Z,168.75
2018-06-02T06:54:28.214Z,180.00
2018-06-02T06:55:28.208Z,196.88
2018-06-02T06:56:28.199Z,219.38
2018-06-02T06:57:28.208Z,247.50
2018-06-02T06:58:28.188Z,281.25
2018-06-02T06:59:28.190Z,326.25
2018-06-02T07:00:28.379Z,393.75
2018-06-02T07:01:28.171Z,444.38
2018-06-02T07:02:28.168Z,472.50
2018-06-02T07:03:28.164Z,601.88
2018-06-02T07:04:28.154Z,613.13
2018-06-02T07:05:28.149Z,585.00
2018-06-02T07:06:28.151Z,596.25
2018-06-02T07:07:28.138Z,624.38
2018-06-02T07:08:28.134Z,652.50
2018-06-02T07:09:28.129Z,562.50
2018-06-02T07:10:28.125Z,556.88
2018-06-02T07:11:28.123Z,545.63
2018-06-02T07:12:28.121Z,540.00
2018-06-02T07:13:28.112Z,517.50
2018-06-02T07:14:28.112Z,478.13
2018-06-02T07:15:28.101Z,478.13
2018-06-02T07:16:28.098Z,528.75
2018-06-02T07:17:28.093Z,545.63
2018-06-02T07:18:28.087Z,500.63
2018-06-02T07:19:28.085Z,506.25
2018-06-02T07:20:28.079Z,517.50
2018-06-02T07:21:28.077Z,545.63
2018-06-02T07:22:28.077Z,517.50
2018-06-02T07:23:28.070Z,410.63
2018-06-02T07:24:28.070Z,354.38
2018-06-02T07:25:28.063Z,365.63
2018-06-02T07:26:28.059Z,354.38
2018-06-02T07:27:28.052Z,320.63
2018-06-02T07:28:28.050Z,315.00
2018-06-02T07:29:28.048Z,315.00
2018-06-02T07:30:28.039Z,298.13
2018-06-02T07:31:28.035Z,275.63
2018-06-02T07:32:28.032Z,264.38
2018-06-02T07:33:28.028Z,292.50
2018-06-02T07:34:28.024Z,331.88
2018-06-02T07:35:28.021Z,303.75
2018-06-02T07:36:28.066Z,337.50
2018-06-02T07:37:28.012Z,410.63
2018-06-02T07:38:28.010Z,461.25
2018-06-02T07:39:28.003Z,506.25
2018-06-02T07:40:28.002Z,523.13
2018-06-02T07:41:27.998Z,511.88
2018-06-02T07:42:27.991Z,517.50
2018-06-02T07:43:27.988Z,500.63
2018-06-02T07:44:27.983Z,534.38
2018-06-02T07:45:27.982Z,596.25
2018-06-02T07:46:27.974Z,658.13
2018-06-02T07:47:27.970Z,691.88
2018-06-02T07:48:27.967Z,686.25
2018-06-02T07:49:27.963Z,613.13
2018-06-02T07:50:27.960Z,585.00
2018-06-02T07:51:27.956Z,568.13
2018-06-02T07:52:27.957Z,528.75
2018-06-02T07:53:27.949Z,517.50
2018-06-02T07:54:27.949Z,618.75
2018-06-02T07:55:27.941Z,675.00
2018-06-02T07:56:27.939Z,765.00
2018-06-02T07:57:27.939Z,860.63
2018-06-02T07:58:27.932Z,894.38
2018-06-02T07:59:27.927Z,928.13
2018-06-02T08:00:27.922Z,871.88
2018-06-02T08:01:27.927Z,928.13
2018-06-02T08:02:28.118Z,978.75
2018-06-02T08:03:28.114Z,742.50
2018-06-02T08:04:27.915Z,675.00
2018-06-02T08:05:27.906Z,618.75
2018-06-02T08:06:27.904Z,579.38
2018-06-02T08:07:27.900Z,613.13
2018-06-02T08:08:27.964Z,585.00
2018-06-02T08:09:27.897Z,551.25
2018-06-02T08:10:27.893Z,551.25
2018-06-02T08:11:27.891Z,579.38
2018-06-02T08:12:27.886Z,804.38
2018-06-02T08:13:27.882Z,1091.25
2018-06-02T08:14:27.887Z,1023.75
2018-06-02T08:15:27.876Z,956.25
2018-06-02T08:16:27.873Z,781.88
2018-06-02T08:17:27.872Z,731.25
2018-06-02T08:18:27.874Z,939.38
2018-06-02T08:19:27.869Z,1220.63
2018-06-02T08:20:27.881Z,3521.25
2018-06-02T08:21:27.864Z,1006.88
2018-06-02T08:22:27.858Z,1125.00
2018-06-02T08:23:27.857Z,1839.38
2018-06-02T08:24:27.857Z,2216.25
2018-06-02T08:25:27.853Z,1288.13
2018-06-02T08:26:27.852Z,1035.00
2018-06-02T08:27:27.852Z,1046.25
2018-06-02T08:28:27.851Z,3228.75
2018-06-02T08:29:27.851Z,3386.25
2018-06-02T08:30:27.848Z,3645.00
2018-06-02T08:31:27.849Z,2356.88
2018-06-02T08:32:27.862Z,1912.50
2018-06-02T08:33:27.918Z,1861.88
2018-06-02T08:34:28.056Z,2700.00
2018-06-02T08:35:27.863Z,1305.00
2018-06-02T08:36:27.860Z,1080.00
2018-06-02T08:37:27.863Z,1175.63
2018-06-02T08:38:27.868Z,1468.13
2018-06-02T08:39:27.867Z,1445.63
2018-06-02T08:40:27.869Z,1620.00
2018-06-02T08:41:27.872Z,3892.50
2018-06-02T08:42:27.874Z,1293.75
2018-06-02T08:43:27.878Z,2002.50
2018-06-02T08:44:27.879Z,1833.75
2018-06-02T08:45:27.882Z,2925.00
2018-06-02T08:46:27.887Z,4348.13
2018-06-02T08:47:27.893Z,1912.50
2018-06-02T08:48:27.890Z,2340.00
2018-06-02T08:49:27.894Z,2008.13
2018-06-02T08:50:27.899Z,2700.00
2018-06-02T08:51:27.901Z,1428.75
2018-06-02T08:52:27.906Z,3172.50
2018-06-02T08:53:27.915Z,3915.00
2018-06-02T08:54:27.983Z,1552.50
2018-06-02T08:55:27.925Z,2576.25
2018-06-02T08:56:27.928Z,3684.38
2018-06-02T08:57:27.933Z,3605.63
2018-06-02T08:58:27.938Z,3673.13
2018-06-02T08:59:27.946Z,3543.75
2018-06-02T09:00:28.011Z,3121.88
2018-06-02T09:01:27.962Z,3110.63
2018-06-02T09:02:28.168Z,3836.25
2018-06-02T09:03:27.973Z,2036.25
2018-06-02T09:04:27.980Z,4044.38
2018-06-02T09:05:28.030Z,3830.63
2018-06-02T09:06:27.998Z,4297.50
2018-06-02T09:07:28.004Z,2176.88
2018-06-02T09:08:28.017Z,2598.75
2018-06-02T09:09:28.020Z,3459.38
2018-06-02T09:10:28.027Z,3746.25
2018-06-02T09:11:28.037Z,995.63
2018-06-02T09:12:28.043Z,793.13
2018-06-02T09:13:28.053Z,748.13
2018-06-02T09:14:28.059Z,736.88
2018-06-02T09:15:28.088Z,680.63
2018-06-02T09:16:28.071Z,630.00
2018-06-02T09:17:28.075Z,663.75
2018-06-02T09:18:28.083Z,855.00
2018-06-02T09:19:28.081Z,838.13
2018-06-02T09:20:28.090Z,804.38
2018-06-02T09:21:28.088Z,787.50
2018-06-02T09:22:28.092Z,815.63
2018-06-02T09:23:28.099Z,990.00
2018-06-02T09:24:28.096Z,1299.38
2018-06-02T09:25:28.301Z,1648.13
2018-06-02T09:26:28.101Z,1828.13
2018-06-02T09:27:28.102Z,2407.50
2018-06-02T09:28:28.105Z,1383.75
2018-06-02T09:29:28.110Z,1237.50
2018-06-02T09:30:28.115Z,1203.75
2018-06-02T09:31:28.111Z,1293.75
2018-06-02T09:32:28.315Z,1867.50
2018-06-02T09:33:28.116Z,1462.50
2018-06-02T09:34:28.120Z,1929.38
2018-06-02T09:35:28.118Z,1766.25
2018-06-02T09:36:28.121Z,1546.88
2018-06-02T09:37:28.123Z,2266.88
2018-06-02T09:38:28.124Z,1372.50
2018-06-02T09:39:28.133Z,1642.50
2018-06-02T09:40:28.132Z,1681.88
2018-06-02T09:41:28.133Z,4128.75
2018-06-02T09:42:28.134Z,3324.38
2018-06-02T09:43:28.138Z,1681.88
2018-06-02T09:44:28.143Z,2992.50
2018-06-02T09:45:28.148Z,1642.50
2018-06-02T09:46:28.151Z,3358.13
2018-06-02T09:47:28.158Z,1946.25
2018-06-02T09:48:28.161Z,4179.38
2018-06-02T09:49:28.167Z,4460.63
2018-06-02T09:50:28.173Z,3763.13
2018-06-02T09:51:28.179Z,2182.50
2018-06-02T09:52:28.188Z,2677.50
2018-06-02T09:53:28.202Z,3526.88
2018-06-02T09:54:28.204Z,1417.50
2018-06-02T09:55:28.211Z,1299.38
2018-06-02T09:56:28.223Z,1186.88
2018-06-02T09:57:28.224Z,1113.75
2018-06-02T09:58:28.233Z,1130.63
2018-06-02T09:59:28.237Z,1164.38
2018-06-02T10:00:28.242Z,1226.25
2018-06-02T10:01:28.249Z,1271.25
2018-06-02T10:02:28.252Z,1310.63
2018-06-02T10:03:28.256Z,1299.38
2018-06-02T10:04:28.259Z,1338.75
2018-06-02T10:05:28.264Z,1378.13
2018-06-02T10:06:28.269Z,1406.25
2018-06-02T10:07:28.269Z,1389.38
2018-06-02T10:08:28.274Z,1440.00
2018-06-02T10:09:28.277Z,1614.38
2018-06-02T10:10:28.313Z,1726.88
2018-06-02T10:11:28.282Z,1687.50
2018-06-02T10:12:28.290Z,1636.88
2018-06-02T10:13:28.289Z,1603.13
2018-06-02T10:14:28.294Z,1710.00
2018-06-02T10:15:28.294Z,2019.38
2018-06-02T10:16:28.298Z,3622.50
2018-06-02T10:17:28.301Z,2840.63
2018-06-02T10:18:28.306Z,2250.00
2018-06-02T10:19:28.316Z,2610.00
2018-06-02T10:20:28.313Z,1485.00
2018-06-02T10:21:28.324Z,1316.25
2018-06-02T10:22:28.323Z,1040.63
2018-06-02T10:23:28.326Z,871.88
2018-06-02T10:24:28.333Z,866.25
2018-06-02T10:25:28.335Z,860.63
2018-06-02T10:26:28.338Z,832.50
2018-06-02T10:27:28.347Z,770.63
2018-06-02T10:28:28.349Z,793.13
2018-06-02T10:29:28.348Z,810.00
2018-06-02T10:30:28.350Z,759.38
2018-06-02T10:31:28.354Z,714.38
2018-06-02T10:32:28.359Z,759.38
2018-06-02T10:33:28.357Z,810.00
2018-06-02T10:34:28.356Z,804.38
2018-06-02T10:35:28.398Z,770.63
2018-06-02T10:36:28.359Z,658.13
2018-06-02T10:37:28.361Z,646.88
2018-06-02T10:38:28.360Z,759.38
2018-06-02T10:39:28.365Z,900.00
2018-06-02T10:40:28.362Z,990.00
2018-06-02T10:41:28.365Z,1035.00
2018-06-02T10:42:28.361Z,1040.63
2018-06-02T10:43:28.361Z,1035.00
2018-06-02T10:44:28.366Z,1085.63
2018-06-02T10:45:28.568Z,1175.63
2018-06-02T10:46:28.361Z,1248.75
2018-06-02T10:47:28.563Z,1355.63
2018-06-02T10:48:28.363Z,1344.38
2018-06-02T10:49:28.361Z,1327.50
2018-06-02T10:50:28.364Z,1231.88
2018-06-02T10:51:28.359Z,1085.63
2018-06-02T10:52:28.360Z,1220.63
2018-06-02T10:53:28.359Z,1164.38
2018-06-02T10:54:28.365Z,1203.75
2018-06-02T10:55:28.370Z,1231.88
2018-06-02T10:56:28.365Z,1417.50
2018-06-02T10:57:28.360Z,1423.13
2018-06-02T10:58:28.394Z,1260.00
2018-06-02T10:59:28.360Z,1215.00
2018-06-02T11:00:28.361Z,1181.25
2018-06-02T11:01:28.368Z,1186.88
2018-06-02T11:02:28.361Z,1209.38
2018-06-02T11:03:28.362Z,1237.50
2018-06-02T11:04:28.366Z,1271.25
2018-06-02T11:05:28.364Z,1293.75
2018-06-02T11:06:28.363Z,1327.50
2018-06-02T11:07:28.364Z,1327.50
2018-06-02T11:08:28.370Z,1327.50
2018-06-02T11:09:28.366Z,1338.75
2018-06-02T11:10:28.369Z,1389.38
2018-06-02T11:11:28.367Z,1333.13
2018-06-02T11:12:28.366Z,1220.63
2018-06-02T11:13:28.367Z,1125.00
2018-06-02T11:14:28.369Z,1001.25
2018-06-02T11:15:28.369Z,894.38
2018-06-02T11:16:28.371Z,810.00
2018-06-02T11:17:28.373Z,736.88
2018-06-02T11:18:28.373Z,680.63
2018-06-02T11:19:28.379Z,641.25
2018-06-02T11:20:28.372Z,624.38
2018-06-02T11:21:28.366Z,624.38
2018-06-02T11:22:28.366Z,635.63
2018-06-02T11:23:28.364Z,652.50
2018-06-02T11:24:28.364Z,669.38
2018-06-02T11:25:28.366Z,686.25
2018-06-02T11:26:28.362Z,714.38
2018-06-02T11:27:28.363Z,736.88
2018-06-02T11:28:28.363Z,759.38
2018-06-02T11:29:28.360Z,787.50
2018-06-02T11:30:28.357Z,826.88
2018-06-02T11:31:28.357Z,849.38
2018-06-02T11:32:28.359Z,905.63
2018-06-02T11:33:28.355Z,973.13
2018-06-02T11:34:28.355Z,1040.63
2018-06-02T11:35:28.354Z,1096.88
2018-06-02T11:36:28.352Z,1147.50
2018-06-02T11:37:28.356Z,1209.38
2018-06-02T11:38:28.353Z,1265.63
2018-06-02T11:39:28.553Z,1310.63
2018-06-02T11:40:28.351Z,1192.50
2018-06-02T11:41:28.353Z,1051.88
2018-06-02T11:42:28.351Z,1006.88
2018-06-02T11:43:28.354Z,1046.25
2018-06-02T11:44:28.350Z,1063.13
2018-06-02T11:45:28.349Z,967.50
2018-06-02T11:46:28.351Z,804.38
2018-06-02T11:47:28.348Z,652.50
2018-06-02T11:48:28.347Z,540.00
2018-06-02T11:49:28.352Z,483.75
2018-06-02T11:50:28.348Z,466.88
2018-06-02T11:51:28.348Z,506.25
2018-06-02T11:52:28.345Z,534.38
2018-06-02T11:53:28.345Z,556.88
2018-06-02T11:54:28.345Z,556.88
2018-06-02T11:55:28.343Z,545.63
2018-06-02T11:56:28.349Z,534.38
2018-06-02T11:57:28.343Z,517.50
2018-06-02T11:58:28.343Z,483.75
2018-06-02T11:59:28.341Z,455.63
2018-06-02T12:00:28.341Z,427.50
2018-06-02T12:01:28.339Z,399.38
2018-06-02T12:02:28.336Z,371.25
2018-06-02T12:03:28.336Z,354.38
2018-06-02T12:04:28.335Z,348.75
2018-06-02T12:05:28.334Z,360.00
2018-06-02T12:06:28.334Z,376.88
2018-06-02T12:07:28.330Z,388.13
2018-06-02T12:08:28.327Z,399.38
2018-06-02T12:09:28.326Z,405.00
2018-06-02T12:10:28.324Z,427.50
2018-06-02T12:11:28.324Z,438.75
2018-06-02T12:12:28.325Z,478.13
2018-06-02T12:13:28.320Z,511.88
2018-06-02T12:14:28.314Z,551.25
2018-06-02T12:15:28.317Z,590.63
2018-06-02T12:16:28.314Z,635.63
2018-06-02T12:17:28.315Z,675.00
2018-06-02T12:18:28.306Z,697.50
2018-06-02T12:19:28.304Z,714.38
2018-06-02T12:20:28.308Z,703.13
2018-06-02T12:21:28.302Z,680.63
2018-06-02T12:22:28.303Z,646.88
2018-06-02T12:23:28.297Z,613.13
2018-06-02T12:24:28.295Z,579.38
2018-06-02T12:25:28.296Z,556.88
2018-06-02T12:26:28.296Z,540.00
2018-06-02T12:27:28.290Z,534.38
2018-06-02T12:28:28.342Z,511.88
2018-06-02T12:29:28.289Z,511.88
2018-06-02T12:30:28.286Z,506.25
2018-06-02T12:31:28.282Z,517.50
2018-06-02T12:32:28.279Z,534.38
2018-06-02T12:33:28.279Z,556.88
2018-06-02T12:34:28.275Z,601.88
2018-06-02T12:35:28.273Z,652.50
2018-06-02T12:36:28.277Z,697.50
2018-06-02T12:37:28.275Z,759.38
2018-06-02T12:38:28.269Z,826.88
2018-06-02T12:39:28.269Z,883.13
2018-06-02T12:40:28.270Z,916.88
2018-06-02T12:41:28.263Z,945.00